sensor_id;sensor_type;location;lat;lon;timestamp;P1;durP1;ratioP1;P2;durP2;ratioP2
44720;SDS011;30450;52.534;13.398;2022-10-13T00:01:15;12.13;;;5.13;;
44720;SDS011;30450;52.534;13.398;2022-10-13T00:03:42;17.98;;;6.15;;
44720;SDS011;30450;52.534;13.398;2022-10-13T00:06:11;10.43;;;4.72;;
44720;SDS011;30450;52.534;13.398;2022-10-13T00:08:37;13.52;;;5.38;;
44720;SDS011;30450;52.534;13.398;2022-10-13T00:13:35;18.77;;;6.30;;
44720;SDS011;30450;52.534;13.398;2022-10-13T00:16:01;14.13;;;5.28;;
44720;SDS011;30450;52.534;13.398;2022-10-13T00:18:26;19.20;;;5.32;;
44720;SDS011;30450;52.534;13.398;2022-10-13T00:20:52;12.00;;;4.93;;
44720;SDS011;30450;52.534;13.398;2022-10-13T00:23:18;12.52;;;5.38;;
44720;SDS011;30450;52.534;13.398;2022-10-13T00:25:44;11.23;;;5.57;;
44720;SDS011;30450;52.534;13.398;2022-10-13T00:28:10;14.55;;;5.75;;
44720;SDS011;30450;52.534;13.398;2022-10-13T00:30:36;19.17;;;5.85;;
44720;SDS011;30450;52.534;13.398;2022-10-13T00:33:02;14.15;;;5.20;;
44720;SDS011;30450;52.534;13.398;2022-10-13T00:35:28;21.15;;;5.55;;
44720;SDS011;30450;52.534;13.398;2022-10-13T00:37:54;20.13;;;4.78;;
44720;SDS011;30450;52.534;13.398;2022-10-13T00:40:20;12.95;;;5.82;;
44720;SDS011;30450;52.534;13.398;2022-10-13T00:42:45;12.90;;;5.72;;
44720;SDS011;30450;52.534;13.398;2022-10-13T00:45:18;14.18;;;5.88;;
44720;SDS011;30450;52.534;13.398;2022-10-13T00:47:45;15.70;;;5.68;;
44720;SDS011;30450;52.534;13.398;2022-10-13T00:50:14;16.38;;;5.35;;
44720;SDS011;30450;52.534;13.398;2022-10-13T00:52:41;15.32;;;6.18;;
44720;SDS011;30450;52.534;13.398;2022-10-13T00:55:07;16.70;;;6.25;;
44720;SDS011;30450;52.534;13.398;2022-10-13T00:57:35;21.08;;;5.93;;
44720;SDS011;30450;52.534;13.398;2022-10-13T01:00:03;12.40;;;5.53;;
44720;SDS011;30450;52.534;13.398;2022-10-13T01:02:31;16.00;;;5.82;;
44720;SDS011;30450;52.534;13.398;2022-10-13T01:04:57;16.42;;;5.38;;
44720;SDS011;30450;52.534;13.398;2022-10-13T01:07:23;13.38;;;5.30;;
44720;SDS011;30450;52.534;13.398;2022-10-13T01:09:49;17.80;;;6.63;;
44720;SDS011;30450;52.534;13.398;2022-10-13T01:18:10;12.05;;;6.00;;
44720;SDS011;30450;52.534;13.398;2022-10-13T01:36:35;18.13;;;6.03;;
44720;SDS011;30450;52.534;13.398;2022-10-13T01:39:12;13.80;;;5.95;;
44720;SDS011;30450;52.534;13.398;2022-10-13T01:41:40;17.70;;;6.25;;
44720;SDS011;30450;52.534;13.398;2022-10-13T01:46:52;18.23;;;6.22;;
44720;SDS011;30450;52.534;13.398;2022-10-13T01:49:20;11.07;;;5.68;;
44720;SDS011;30450;52.534;13.398;2022-10-13T01:51:46;14.90;;;6.10;;
44720;SDS011;30450;52.534;13.398;2022-10-13T01:54:13;11.80;;;5.05;;
44720;SDS011;30450;52.534;13.398;2022-10-13T01:56:39;14.50;;;5.57;;
44720;SDS011;30450;52.534;13.398;2022-10-13T01:59:06;16.20;;;6.40;;
44720;SDS011;30450;52.534;13.398;2022-10-13T02:01:46;17.52;;;5.80;;
44720;SDS011;30450;52.534;13.398;2022-10-13T02:04:24;13.40;;;6.05;;
44720;SDS011;30450;52.534;13.398;2022-10-13T02:06:56;21.80;;;5.97;;
44720;SDS011;30450;52.534;13.398;2022-10-13T02:09:33;11.88;;;6.10;;
44720;SDS011;30450;52.534;13.398;2022-10-13T02:12:08;12.75;;;6.30;;
44720;SDS011;30450;52.534;13.398;2022-10-13T02:14:36;17.17;;;6.72;;
44720;SDS011;30450;52.534;13.398;2022-10-13T02:17:03;11.90;;;5.70;;
44720;SDS011;30450;52.534;13.398;2022-10-13T02:19:30;16.27;;;5.75;;
44720;SDS011;30450;52.534;13.398;2022-10-13T02:21:57;21.00;;;6.20;;
44720;SDS011;30450;52.534;13.398;2022-10-13T02:24:23;17.77;;;6.20;;
44720;SDS011;30450;52.534;13.398;2022-10-13T02:26:50;14.75;;;5.80;;
44720;SDS011;30450;52.534;13.398;2022-10-13T02:29:16;18.55;;;5.78;;
44720;SDS011;30450;52.534;13.398;2022-10-13T02:31:43;14.20;;;5.93;;
44720;SDS011;30450;52.534;13.398;2022-10-13T02:34:11;12.30;;;5.82;;
44720;SDS011;30450;52.534;13.398;2022-10-13T02:36:37;18.00;;;5.72;;
44720;SDS011;30450;52.534;13.398;2022-10-13T02:39:04;17.95;;;6.22;;
44720;SDS011;30450;52.534;13.398;2022-10-13T02:41:30;14.23;;;5.72;;
44720;SDS011;30450;52.534;13.398;2022-10-13T02:43:56;13.35;;;5.70;;
44720;SDS011;30450;52.534;13.398;2022-10-13T02:46:21;16.13;;;5.63;;
44720;SDS011;30450;52.534;13.398;2022-10-13T02:48:47;11.35;;;5.25;;
44720;SDS011;30450;52.534;13.398;2022-10-13T02:51:13;19.05;;;6.30;;
44720;SDS011;30450;52.534;13.398;2022-10-13T02:53:39;12.75;;;6.97;;
44720;SDS011;30450;52.534;13.398;2022-10-13T02:56:05;12.30;;;6.45;;
44720;SDS011;30450;52.534;13.398;2022-10-13T02:58:30;10.10;;;5.13;;
44720;SDS011;30450;52.534;13.398;2022-10-13T03:01:06;20.65;;;6.85;;
44720;SDS011;30450;52.534;13.398;2022-10-13T03:03:32;20.85;;;6.18;;
44720;SDS011;30450;52.534;13.398;2022-10-13T03:05:58;18.40;;;6.68;;
44720;SDS011;30450;52.534;13.398;2022-10-13T03:08:24;13.85;;;6.13;;
44720;SDS011;30450;52.534;13.398;2022-10-13T03:10:49;20.70;;;6.18;;
44720;SDS011;30450;52.534;13.398;2022-10-13T03:13:15;13.90;;;5.93;;
44720;SDS011;30450;52.534;13.398;2022-10-13T03:15:40;13.75;;;6.55;;
44720;SDS011;30450;52.534;13.398;2022-10-13T03:18:06;12.48;;;5.90;;
44720;SDS011;30450;52.534;13.398;2022-10-13T03:20:32;14.23;;;6.57;;
44720;SDS011;30450;52.534;13.398;2022-10-13T03:22:58;11.35;;;6.60;;
44720;SDS011;30450;52.534;13.398;2022-10-13T03:25:24;17.75;;;6.30;;
44720;SDS011;30450;52.534;13.398;2022-10-13T03:27:49;15.40;;;6.28;;
44720;SDS011;30450;52.534;13.398;2022-10-13T03:30:15;12.88;;;5.60;;
44720;SDS011;30450;52.534;13.398;2022-10-13T03:32:41;18.48;;;6.78;;
44720;SDS011;30450;52.534;13.398;2022-10-13T03:35:06;16.83;;;6.85;;
44720;SDS011;30450;52.534;13.398;2022-10-13T03:37:32;15.07;;;6.32;;
44720;SDS011;30450;52.534;13.398;2022-10-13T03:39:58;15.43;;;6.75;;
44720;SDS011;30450;52.534;13.398;2022-10-13T03:42:24;21.90;;;7.18;;
44720;SDS011;30450;52.534;13.398;2022-10-13T03:44:49;19.48;;;7.25;;
44720;SDS011;30450;52.534;13.398;2022-10-13T03:47:15;14.07;;;6.40;;
44720;SDS011;30450;52.534;13.398;2022-10-13T03:49:41;14.52;;;6.18;;
44720;SDS011;30450;52.534;13.398;2022-10-13T03:52:07;15.32;;;7.53;;
44720;SDS011;30450;52.534;13.398;2022-10-13T03:54:33;19.60;;;6.82;;
44720;SDS011;30450;52.534;13.398;2022-10-13T03:56:58;9.95;;;6.78;;
44720;SDS011;30450;52.534;13.398;2022-10-13T03:59:24;15.43;;;7.10;;
44720;SDS011;30450;52.534;13.398;2022-10-13T04:01:50;13.18;;;7.28;;
44720;SDS011;30450;52.534;13.398;2022-10-13T04:04:15;13.50;;;6.88;;
44720;SDS011;30450;52.534;13.398;2022-10-13T04:06:41;13.55;;;6.43;;
44720;SDS011;30450;52.534;13.398;2022-10-13T04:09:07;13.15;;;6.35;;
44720;SDS011;30450;52.534;13.398;2022-10-13T04:11:32;19.23;;;6.82;;
44720;SDS011;30450;52.534;13.398;2022-10-13T04:13:58;21.23;;;6.57;;
44720;SDS011;30450;52.534;13.398;2022-10-13T04:16:28;16.15;;;7.35;;
44720;SDS011;30450;52.534;13.398;2022-10-13T04:18:55;19.10;;;6.80;;
44720;SDS011;30450;52.534;13.398;2022-10-13T04:21:22;14.98;;;6.78;;
44720;SDS011;30450;52.534;13.398;2022-10-13T04:23:48;19.42;;;7.47;;
44720;SDS011;30450;52.534;13.398;2022-10-13T04:26:18;17.20;;;6.47;;
44720;SDS011;30450;52.534;13.398;2022-10-13T04:28:45;14.75;;;6.40;;
44720;SDS011;30450;52.534;13.398;2022-10-13T04:31:12;19.43;;;6.70;;
44720;SDS011;30450;52.534;13.398;2022-10-13T04:33:37;22.45;;;7.13;;
44720;SDS011;30450;52.534;13.398;2022-10-13T04:36:04;18.58;;;8.02;;
44720;SDS011;30450;52.534;13.398;2022-10-13T04:38:29;17.70;;;7.25;;
44720;SDS011;30450;52.534;13.398;2022-10-13T04:40:55;13.98;;;6.80;;
44720;SDS011;30450;52.534;13.398;2022-10-13T04:43:20;13.25;;;8.10;;
44720;SDS011;30450;52.534;13.398;2022-10-13T04:45:46;23.27;;;8.07;;
44720;SDS011;30450;52.534;13.398;2022-10-13T04:48:12;15.48;;;6.68;;
44720;SDS011;30450;52.534;13.398;2022-10-13T04:50:39;18.58;;;7.97;;
44720;SDS011;30450;52.534;13.398;2022-10-13T04:53:05;19.80;;;7.97;;
44720;SDS011;30450;52.534;13.398;2022-10-13T04:55:33;16.90;;;7.40;;
44720;SDS011;30450;52.534;13.398;2022-10-13T04:57:59;22.67;;;7.80;;
44720;SDS011;30450;52.534;13.398;2022-10-13T05:00:25;15.02;;;6.93;;
44720;SDS011;30450;52.534;13.398;2022-10-13T05:02:51;19.45;;;8.75;;
44720;SDS011;30450;52.534;13.398;2022-10-13T05:05:16;15.38;;;7.63;;
44720;SDS011;30450;52.534;13.398;2022-10-13T05:07:42;15.48;;;7.57;;
44720;SDS011;30450;52.534;13.398;2022-10-13T05:10:08;20.15;;;8.95;;
44720;SDS011;30450;52.534;13.398;2022-10-13T05:12:34;17.63;;;7.72;;
44720;SDS011;30450;52.534;13.398;2022-10-13T05:15:00;19.80;;;7.78;;
44720;SDS011;30450;52.534;13.398;2022-10-13T05:17:27;15.98;;;7.03;;
44720;SDS011;30450;52.534;13.398;2022-10-13T05:19:53;15.32;;;7.88;;
44720;SDS011;30450;52.534;13.398;2022-10-13T05:22:19;17.38;;;8.07;;
44720;SDS011;30450;52.534;13.398;2022-10-13T05:24:45;23.38;;;8.95;;
44720;SDS011;30450;52.534;13.398;2022-10-13T05:27:11;23.35;;;7.93;;
44720;SDS011;30450;52.534;13.398;2022-10-13T05:29:38;24.50;;;10.05;;
44720;SDS011;30450;52.534;13.398;2022-10-13T05:32:04;15.45;;;8.98;;
44720;SDS011;30450;52.534;13.398;2022-10-13T05:34:30;13.98;;;9.15;;
44720;SDS011;30450;52.534;13.398;2022-10-13T05:36:57;14.00;;;8.57;;
44720;SDS011;30450;52.534;13.398;2022-10-13T05:39:23;21.33;;;9.55;;
44720;SDS011;30450;52.534;13.398;2022-10-13T05:41:49;21.42;;;9.70;;
44720;SDS011;30450;52.534;13.398;2022-10-13T05:44:15;22.27;;;10.07;;
44720;SDS011;30450;52.534;13.398;2022-10-13T05:46:41;20.25;;;9.30;;
44720;SDS011;30450;52.534;13.398;2022-10-13T05:49:07;22.55;;;8.85;;
44720;SDS011;30450;52.534;13.398;2022-10-13T05:51:37;21.80;;;9.05;;
44720;SDS011;30450;52.534;13.398;2022-10-13T05:54:05;14.25;;;8.07;;
44720;SDS011;30450;52.534;13.398;2022-10-13T05:56:33;29.33;;;9.02;;
44720;SDS011;30450;52.534;13.398;2022-10-13T05:59:02;17.40;;;8.18;;
44720;SDS011;30450;52.534;13.398;2022-10-13T06:01:30;22.98;;;9.50;;
44720;SDS011;30450;52.534;13.398;2022-10-13T06:03:57;16.70;;;8.00;;
44720;SDS011;30450;52.534;13.398;2022-10-13T06:06:25;18.70;;;8.43;;
44720;SDS011;30450;52.534;13.398;2022-10-13T06:08:51;14.88;;;8.63;;
44720;SDS011;30450;52.534;13.398;2022-10-13T06:11:17;21.48;;;7.95;;
44720;SDS011;30450;52.534;13.398;2022-10-13T06:13:43;18.35;;;9.85;;
44720;SDS011;30450;52.534;13.398;2022-10-13T06:16:08;20.50;;;8.27;;
44720;SDS011;30450;52.534;13.398;2022-10-13T06:18:34;14.77;;;8.10;;
44720;SDS011;30450;52.534;13.398;2022-10-13T06:21:00;17.75;;;9.32;;
44720;SDS011;30450;52.534;13.398;2022-10-13T06:23:26;25.98;;;9.60;;
44720;SDS011;30450;52.534;13.398;2022-10-13T06:25:52;23.63;;;9.20;;
44720;SDS011;30450;52.534;13.398;2022-10-13T06:28:18;17.00;;;9.00;;
44720;SDS011;30450;52.534;13.398;2022-10-13T06:30:44;14.65;;;9.30;;
44720;SDS011;30450;52.534;13.398;2022-10-13T06:33:18;19.42;;;9.32;;
44720;SDS011;30450;52.534;13.398;2022-10-13T06:35:44;19.70;;;9.98;;
44720;SDS011;30450;52.534;13.398;2022-10-13T06:38:10;18.88;;;9.30;;
44720;SDS011;30450;52.534;13.398;2022-10-13T06:40:36;20.23;;;10.20;;
44720;SDS011;30450;52.534;13.398;2022-10-13T06:43:01;16.13;;;9.15;;
44720;SDS011;30450;52.534;13.398;2022-10-13T06:45:27;16.92;;;9.10;;
44720;SDS011;30450;52.534;13.398;2022-10-13T06:47:53;15.52;;;9.30;;
44720;SDS011;30450;52.534;13.398;2022-10-13T06:50:19;24.25;;;9.63;;
44720;SDS011;30450;52.534;13.398;2022-10-13T06:52:45;23.35;;;9.93;;
44720;SDS011;30450;52.534;13.398;2022-10-13T06:55:10;25.65;;;10.35;;
44720;SDS011;30450;52.534;13.398;2022-10-13T06:57:36;21.60;;;10.00;;
44720;SDS011;30450;52.534;13.398;2022-10-13T07:00:03;26.35;;;10.60;;
44720;SDS011;30450;52.534;13.398;2022-10-13T07:02:29;30.05;;;10.80;;
44720;SDS011;30450;52.534;13.398;2022-10-13T07:04:55;18.77;;;9.85;;
44720;SDS011;30450;52.534;13.398;2022-10-13T07:07:20;22.42;;;10.05;;
44720;SDS011;30450;52.534;13.398;2022-10-13T07:09:46;36.45;;;13.20;;
44720;SDS011;30450;52.534;13.398;2022-10-13T07:12:12;20.60;;;11.38;;
44720;SDS011;30450;52.534;13.398;2022-10-13T07:14:38;25.73;;;11.23;;
44720;SDS011;30450;52.534;13.398;2022-10-13T07:17:04;23.20;;;11.93;;
44720;SDS011;30450;52.534;13.398;2022-10-13T07:19:29;21.60;;;11.65;;
44720;SDS011;30450;52.534;13.398;2022-10-13T07:21:55;26.58;;;11.55;;
44720;SDS011;30450;52.534;13.398;2022-10-13T07:24:21;19.60;;;11.10;;
44720;SDS011;30450;52.534;13.398;2022-10-13T07:26:46;27.17;;;12.73;;
44720;SDS011;30450;52.534;13.398;2022-10-13T07:29:12;19.70;;;12.48;;
44720;SDS011;30450;52.534;13.398;2022-10-13T07:31:38;25.27;;;12.60;;
44720;SDS011;30450;52.534;13.398;2022-10-13T07:34:04;26.10;;;11.88;;
44720;SDS011;30450;52.534;13.398;2022-10-13T07:36:31;29.48;;;11.95;;
44720;SDS011;30450;52.534;13.398;2022-10-13T07:38:59;25.13;;;13.23;;
44720;SDS011;30450;52.534;13.398;2022-10-13T07:41:24;20.90;;;11.77;;
44720;SDS011;30450;52.534;13.398;2022-10-13T07:43:56;19.08;;;12.00;;
44720;SDS011;30450;52.534;13.398;2022-10-13T07:46:22;21.60;;;11.98;;
44720;SDS011;30450;52.534;13.398;2022-10-13T07:48:48;26.35;;;12.57;;
44720;SDS011;30450;52.534;13.398;2022-10-13T07:51:14;24.08;;;11.32;;
44720;SDS011;30450;52.534;13.398;2022-10-13T07:53:40;20.50;;;12.15;;
44720;SDS011;30450;52.534;13.398;2022-10-13T07:56:07;27.95;;;12.60;;
44720;SDS011;30450;52.534;13.398;2022-10-13T07:58:35;21.10;;;11.85;;
44720;SDS011;30450;52.534;13.398;2022-10-13T08:01:02;19.40;;;12.73;;
44720;SDS011;30450;52.534;13.398;2022-10-13T08:03:28;22.70;;;11.50;;
44720;SDS011;30450;52.534;13.398;2022-10-13T08:05:54;21.85;;;12.27;;
44720;SDS011;30450;52.534;13.398;2022-10-13T08:08:20;19.83;;;12.98;;
44720;SDS011;30450;52.534;13.398;2022-10-13T08:10:46;21.55;;;12.27;;
